createdAt,value
2019-01-16T00:01:49.054Z,4.83
2019-01-16T00:04:56.958Z,4.70
2019-01-16T00:07:51.841Z,5.90
2019-01-16T00:10:41.805Z,6.40
2019-01-16T00:13:25.448Z,5.60
2019-01-16T00:16:20.185Z,6.20
2019-01-16T00:19:14.405Z,8.00
2019-01-16T00:22:12.908Z,7.87
2019-01-16T00:25:07.493Z,8.27
2019-01-16T00:27:54.948Z,9.53
2019-01-16T00:30:42.529Z,8.00
2019-01-16T00:33:35.287Z,7.80
2019-01-16T00:36:23.116Z,7.97
2019-01-16T00:39:12.991Z,6.60
2019-01-16T00:42:11.685Z,7.40
2019-01-16T00:44:59.785Z,9.07
2019-01-16T00:47:49.234Z,7.03
2019-01-16T00:50:43.241Z,8.00
2019-01-16T00:53:23.381Z,7.73
2019-01-16T00:56:24.312Z,10.00
2019-01-16T00:59:19.667Z,8.37
2019-01-16T01:02:08.287Z,7.20
2019-01-16T01:04:50.521Z,7.37
2019-01-16T01:07:46.081Z,6.03
2019-01-16T01:10:30.050Z,5.57
2019-01-16T01:13:33.619Z,4.90
2019-01-16T01:16:25.922Z,5.50
2019-01-16T01:19:27.093Z,5.60
2019-01-16T01:22:25.133Z,4.67
2019-01-16T01:25:05.009Z,5.10
2019-01-16T01:27:44.854Z,5.23
2019-01-16T01:30:38.071Z,5.33
2019-01-16T01:33:28.068Z,5.33
2019-01-16T01:36:16.107Z,5.47
2019-01-16T01:39:05.519Z,5.00
2019-01-16T01:41:56.981Z,4.50
2019-01-16T01:44:48.052Z,4.97
2019-01-16T01:47:36.255Z,4.60
2019-01-16T01:50:26.279Z,4.70
2019-01-16T01:53:14.240Z,6.43
2019-01-16T01:55:56.273Z,8.17
2019-01-16T01:58:44.800Z,5.83
2019-01-16T02:01:39.508Z,4.60
2019-01-16T02:04:31.738Z,5.30
2019-01-16T02:07:21.728Z,4.90
2019-01-16T02:10:19.530Z,5.27
2019-01-16T02:13:32.655Z,5.90
2019-01-16T02:16:26.885Z,4.60
2019-01-16T02:19:31.071Z,4.60
2019-01-16T02:22:35.290Z,4.90
2019-01-16T02:25:24.940Z,5.30
2019-01-16T02:28:05.367Z,5.20
2019-01-16T02:31:12.767Z,5.13
2019-01-16T02:34:01.340Z,4.40
2019-01-16T02:36:45.381Z,5.27
2019-01-16T02:39:52.713Z,5.30
2019-01-16T02:42:40.979Z,6.33
2019-01-16T02:45:27.413Z,6.50
2019-01-16T02:48:26.353Z,7.27
2019-01-16T02:51:33.763Z,5.67
2019-01-16T02:54:23.598Z,6.00
2019-01-16T02:57:08.118Z,6.00
2019-01-16T02:59:48.386Z,5.80
2019-01-16T03:02:35.755Z,4.97
2019-01-16T03:05:25.987Z,7.03
2019-01-16T03:08:12.497Z,6.10
2019-01-16T03:11:05.738Z,7.40
2019-01-16T03:13:57.522Z,5.87
2019-01-16T03:16:45.682Z,6.30
2019-01-16T03:19:52.570Z,5.90
2019-01-16T03:22:53.652Z,6.50
2019-01-16T03:25:51.178Z,6.33
2019-01-16T03:28:46.186Z,5.80
2019-01-16T03:31:41.128Z,6.53
2019-01-16T03:34:28.606Z,6.27
2019-01-16T03:37:16.500Z,6.20
2019-01-16T03:40:17.529Z,6.10
2019-01-16T03:42:57.112Z,5.93
2019-01-16T03:45:40.324Z,6.07
2019-01-16T03:48:39.525Z,5.30
2019-01-16T03:51:28.119Z,5.83
2019-01-16T03:54:16.012Z,5.73
2019-01-16T03:57:12.881Z,6.30
2019-01-16T04:00:13.735Z,6.20
2019-01-16T04:03:11.780Z,6.47
2019-01-16T04:06:12.715Z,6.20
2019-01-16T04:09:04.656Z,5.60
2019-01-16T04:12:02.655Z,7.00
2019-01-16T04:14:54.633Z,6.20
2019-01-16T04:17:43.868Z,5.30
2019-01-16T04:20:33.788Z,7.10
2019-01-16T04:23:15.982Z,6.80
2019-01-16T04:26:10.754Z,6.50
2019-01-16T04:29:04.520Z,5.60
2019-01-16T04:31:51.639Z,6.30
2019-01-16T04:34:42.594Z,6.47
2019-01-16T04:37:31.128Z,7.30
2019-01-16T04:40:18.206Z,5.97
2019-01-16T04:43:05.491Z,5.87
2019-01-16T04:45:52.762Z,6.30
2019-01-16T04:48:47.702Z,7.00
2019-01-16T04:51:47.672Z,6.93
2019-01-16T04:54:24.736Z,6.87
2019-01-16T04:57:31.111Z,6.50
2019-01-16T05:00:16.161Z,6.50
2019-01-16T05:03:03.865Z,7.10
2019-01-16T05:05:56.221Z,6.73
2019-01-16T05:08:37.545Z,6.80
2019-01-16T05:11:27.300Z,6.80
2019-01-16T05:14:28.074Z,6.57
2019-01-16T05:17:18.732Z,6.07
2019-01-16T05:19:59.502Z,6.70
2019-01-16T05:22:47.357Z,7.62
2019-01-16T05:25:30.506Z,6.60
2019-01-16T05:28:31.519Z,6.70
2019-01-16T05:31:41.967Z,12.47
2019-01-16T05:34:27.300Z,9.27
2019-01-16T05:37:15.362Z,7.97
2019-01-16T05:40:00.403Z,7.70
2019-01-16T05:42:42.514Z,8.10
2019-01-16T05:45:32.649Z,8.03
2019-01-16T05:48:23.006Z,8.00
2019-01-16T05:51:27.507Z,7.40
2019-01-16T05:54:31.182Z,7.67
2019-01-16T05:57:25.627Z,7.70
2019-01-16T06:00:10.192Z,12.80
2019-01-16T06:03:03.797Z,15.50
2019-01-16T06:06:03.629Z,7.87
2019-01-16T06:47:02.869Z,8.77
2019-01-16T06:50:01.773Z,8.30
2019-01-16T06:52:46.729Z,12.30
2019-01-16T06:55:38.436Z,10.47
2019-01-16T06:58:41.429Z,9.03
2019-01-16T07:01:29.570Z,8.30
2019-01-16T07:04:24.597Z,8.37
2019-01-16T07:07:13.067Z,8.00
2019-01-16T07:10:09.054Z,8.20
2019-01-16T07:17:25.781Z,8.80
2019-01-16T07:20:09.931Z,9.23
2019-01-16T07:22:59.353Z,10.10
2019-01-16T07:25:46.448Z,11.60
2019-01-16T07:28:37.674Z,14.37
2019-01-16T07:31:38.864Z,11.40
2019-01-16T07:34:18.390Z,9.20
2019-01-16T07:37:14.073Z,8.43
2019-01-16T07:43:30.355Z,7.70
2019-01-16T07:46:25.154Z,7.43
2019-01-16T07:53:08.492Z,8.13
2019-01-16T07:56:15.682Z,7.67
2019-01-16T07:59:34.306Z,6.90
2019-01-16T08:02:53.831Z,7.47
2019-01-16T08:06:54.453Z,7.40
2019-01-16T08:10:31.477Z,8.30
2019-01-16T08:13:20.242Z,8.90
2019-01-16T08:16:07.780Z,8.83
2019-01-16T08:19:01.754Z,9.37
2019-01-16T08:22:02.345Z,9.20
2019-01-16T08:24:49.521Z,9.03
2019-01-16T08:27:56.480Z,8.80
2019-01-16T08:31:03.218Z,8.93
2019-01-16T08:33:45.762Z,7.80
2019-01-16T08:36:38.207Z,8.60
2019-01-16T08:39:26.649Z,9.17
2019-01-16T08:42:14.352Z,8.40
2019-01-16T08:45:05.889Z,8.40
2019-01-16T08:48:03.796Z,8.90
2019-01-16T08:50:56.399Z,8.57
2019-01-16T08:53:54.211Z,7.90
2019-01-16T08:56:52.741Z,8.63
2019-01-16T08:59:40.455Z,10.63
2019-01-16T09:06:25.485Z,8.83
2019-01-16T09:28:50.180Z,10.03
2019-01-16T09:31:34.095Z,9.60
2019-01-16T09:34:21.512Z,9.77
2019-01-16T09:37:10.374Z,8.83
2019-01-16T09:40:18.240Z,9.77
2019-01-16T09:43:11.284Z,9.87
2019-01-16T09:46:12.282Z,9.27
2019-01-16T09:49:07.952Z,8.73
2019-01-16T09:51:55.446Z,9.77
2019-01-16T09:54:54.427Z,9.00
2019-01-16T09:57:34.171Z,9.70
2019-01-16T10:00:22.260Z,9.27
2019-01-16T10:03:29.340Z,9.33
2019-01-16T10:06:16.729Z,10.27
2019-01-16T10:09:05.567Z,10.20
2019-01-16T10:12:00.651Z,10.00
2019-01-16T10:14:44.789Z,9.90
2019-01-16T10:17:46.307Z,10.50
2019-01-16T10:20:33.674Z,10.73
2019-01-16T10:23:28.104Z,11.23
2019-01-16T10:26:08.263Z,11.00
2019-01-16T10:29:05.883Z,9.40
2019-01-16T10:32:07.416Z,10.50
2019-01-16T10:34:49.115Z,10.33
2019-01-16T10:37:50.339Z,9.23
2019-01-16T10:40:37.383Z,9.23
2019-01-16T10:43:31.423Z,8.80
2019-01-16T10:46:26.470Z,8.83
2019-01-16T10:49:11.698Z,10.13
2019-01-16T10:51:59.677Z,10.30
2019-01-16T10:54:57.737Z,9.10
2019-01-16T10:57:50.912Z,10.10
2019-01-16T11:00:41.054Z,10.40
2019-01-16T11:03:29.109Z,10.07
2019-01-16T11:06:22.315Z,9.57
2019-01-16T11:09:06.736Z,11.10
2019-01-16T11:12:29.298Z,10.07
2019-01-16T11:19:18.255Z,11.00
2019-01-16T11:22:34.424Z,12.97
2019-01-16T11:25:46.090Z,10.87
2019-01-16T11:28:36.329Z,10.17
2019-01-16T11:31:39.074Z,11.13
2019-01-16T11:34:17.492Z,11.47
2019-01-16T11:37:13.271Z,12.20
2019-01-16T11:40:33.773Z,12.30
2019-01-16T11:43:49.092Z,10.60
2019-01-16T11:46:39.248Z,11.60
2019-01-16T11:49:41.722Z,11.27
2019-01-16T11:52:55.521Z,11.00
2019-01-16T11:56:09.220Z,10.30
2019-01-16T11:59:00.267Z,10.20
2019-01-16T12:01:56.961Z,8.57
2019-01-16T12:04:50.735Z,7.43
2019-01-16T12:08:10.430Z,8.43
2019-01-16T12:11:31.878Z,11.00
2019-01-16T12:14:43.000Z,10.67
2019-01-16T12:17:56.856Z,10.37
2019-01-16T12:20:51.456Z,9.27
2019-01-16T12:27:32.036Z,10.57
2019-01-16T12:34:26.715Z,10.57
2019-01-16T12:37:52.799Z,9.23
2019-01-16T12:41:06.664Z,9.40
2019-01-16T12:47:44.495Z,9.77
2019-01-16T12:50:46.328Z,8.20
2019-01-16T12:53:41.358Z,9.33
2019-01-16T12:56:38.428Z,8.63
2019-01-16T12:59:30.371Z,7.90
2019-01-16T13:02:28.208Z,8.50
2019-01-16T13:05:31.778Z,8.07
2019-01-16T13:08:15.850Z,7.03
2019-01-16T13:11:04.815Z,7.90
2019-01-16T13:14:06.328Z,8.77
2019-01-16T13:16:53.576Z,8.77
2019-01-16T13:19:41.981Z,8.37
2019-01-16T13:22:46.143Z,8.43
2019-01-16T13:25:47.175Z,7.60
2019-01-16T13:28:44.584Z,7.50
2019-01-16T13:31:31.036Z,7.73
2019-01-16T13:34:17.827Z,8.07
2019-01-16T13:37:10.754Z,7.03
2019-01-16T13:40:51.895Z,6.45
2019-01-16T13:43:50.390Z,6.87
2019-01-16T13:46:43.958Z,6.33
2019-01-16T13:49:50.822Z,5.97
2019-01-16T13:52:43.391Z,6.13
2019-01-16T13:55:53.648Z,6.60
2019-01-16T13:58:46.565Z,6.97
2019-01-16T14:01:33.570Z,6.00
2019-01-16T14:04:28.643Z,6.70
2019-01-16T14:07:12.765Z,6.40
2019-01-16T14:13:27.252Z,7.50
2019-01-16T14:16:05.820Z,8.00
2019-01-16T14:18:54.028Z,6.70
2019-01-16T14:21:53.156Z,7.33
2019-01-16T14:24:45.092Z,8.73
2019-01-16T14:27:26.765Z,9.90
2019-01-16T14:30:20.720Z,8.20
2019-01-16T14:33:24.748Z,8.13
2019-01-16T14:36:17.177Z,7.70
2019-01-16T14:39:10.015Z,8.10
2019-01-16T14:42:16.640Z,8.30
2019-01-16T14:44:58.113Z,7.87
2019-01-16T14:47:46.947Z,6.90
2019-01-16T14:50:37.018Z,8.10
2019-01-16T14:53:36.212Z,8.37
2019-01-16T14:56:30.873Z,8.20
2019-01-16T14:59:20.212Z,8.40
2019-01-16T15:02:33.707Z,8.40
2019-01-16T15:05:33.239Z,7.80
2019-01-16T15:08:27.522Z,7.50
2019-01-16T15:11:20.512Z,8.57
2019-01-16T15:14:56.409Z,7.80
2019-01-16T15:18:26.668Z,8.27
2019-01-16T15:24:22.173Z,8.67
2019-01-16T15:27:05.379Z,8.23
2019-01-16T15:30:35.344Z,8.30
2019-01-16T15:33:36.121Z,7.63
2019-01-16T15:36:33.015Z,8.43
2019-01-16T15:39:50.307Z,10.13
2019-01-16T15:42:45.207Z,9.40
2019-01-16T15:45:44.266Z,11.17
2019-01-16T15:48:38.963Z,8.87
2019-01-16T15:51:27.200Z,9.93
2019-01-16T15:54:31.893Z,8.83
2019-01-16T15:57:26.989Z,9.63
2019-01-16T16:00:14.785Z,9.47
2019-01-16T16:02:56.608Z,9.10
2019-01-16T16:05:36.257Z,9.40
2019-01-16T16:08:24.399Z,9.03
2019-01-16T16:11:23.353Z,9.30
2019-01-16T16:14:13.422Z,10.53
2019-01-16T16:17:11.658Z,10.33
2019-01-16T16:20:22.793Z,10.77
2019-01-16T16:23:03.318Z,10.27
2019-01-16T16:26:02.892Z,10.10
2019-01-16T16:28:55.114Z,10.43
2019-01-16T16:31:45.346Z,10.80
2019-01-16T16:34:36.280Z,10.03
2019-01-16T16:37:29.137Z,10.27
2019-01-16T16:40:38.700Z,11.65
2019-01-16T16:43:31.646Z,10.07
2019-01-16T16:46:20.894Z,10.25
2019-01-16T16:49:20.682Z,8.40
2019-01-16T16:52:15.592Z,8.00
2019-01-16T16:55:13.111Z,9.93
2019-01-16T16:58:01.824Z,7.77
2019-01-16T17:00:56.552Z,9.00
2019-01-16T17:03:39.987Z,9.27
2019-01-16T17:06:31.170Z,13.07
2019-01-16T17:09:20.041Z,13.27
2019-01-16T17:12:14.970Z,12.90
2019-01-16T17:15:09.810Z,13.53
2019-01-16T17:17:58.863Z,13.73
2019-01-16T17:20:58.219Z,13.73
2019-01-16T17:24:06.358Z,13.73
2019-01-16T17:26:55.418Z,13.53
2019-01-16T17:29:50.882Z,13.00
2019-01-16T17:32:48.585Z,13.10
2019-01-16T17:35:35.159Z,11.70
2019-01-16T17:38:36.873Z,11.53
2019-01-16T17:41:25.188Z,10.90
2019-01-16T17:44:15.382Z,11.50
2019-01-16T17:47:02.884Z,10.70
2019-01-16T17:49:55.355Z,10.13
2019-01-16T17:52:47.445Z,9.27
2019-01-16T17:55:31.239Z,8.20
2019-01-16T17:58:29.188Z,8.00
2019-01-16T18:01:27.120Z,7.83
2019-01-16T18:04:15.863Z,8.50
2019-01-16T18:07:09.543Z,10.10
2019-01-16T18:10:00.366Z,8.10
2019-01-16T18:12:48.565Z,8.00
2019-01-16T18:15:55.924Z,7.70
2019-01-16T18:19:00.131Z,8.77
2019-01-16T18:22:03.827Z,7.07
2019-01-16T18:24:52.187Z,8.17
2019-01-16T18:27:56.583Z,8.40
2019-01-16T18:30:43.982Z,8.20
2019-01-16T18:33:21.734Z,7.37
2019-01-16T18:36:19.408Z,8.43
2019-01-16T18:39:06.660Z,7.43
2019-01-16T18:42:11.025Z,7.80
2019-01-16T18:45:12.658Z,8.50
2019-01-16T18:47:53.196Z,8.60
2019-01-16T18:50:33.946Z,7.67
2019-01-16T18:53:32.760Z,10.80
2019-01-16T18:56:33.299Z,9.23
2019-01-16T18:59:39.989Z,11.33
2019-01-16T19:02:38.410Z,11.30
2019-01-16T19:15:26.943Z,11.90
2019-01-16T19:18:26.570Z,9.60
2019-01-16T19:21:43.458Z,9.17
2019-01-16T19:24:51.011Z,12.83
2019-01-16T19:27:40.678Z,7.60
2019-01-16T19:30:35.155Z,6.70
2019-01-16T19:34:01.406Z,8.40
2019-01-16T19:37:00.045Z,8.27
2019-01-16T19:40:03.858Z,6.67
2019-01-16T19:42:51.756Z,10.13
2019-01-16T19:45:37.206Z,7.00
2019-01-16T19:48:28.985Z,7.07
2019-01-16T19:51:17.720Z,6.90
2019-01-16T19:54:03.203Z,6.03
2019-01-16T19:56:54.113Z,9.60
2019-01-16T19:59:34.520Z,7.80
2019-01-16T20:02:23.412Z,6.87
2019-01-16T20:05:32.917Z,5.40
2019-01-16T20:08:48.106Z,6.47
2019-01-16T20:11:55.018Z,6.53
2019-01-16T20:15:03.845Z,6.13
2019-01-16T20:18:13.612Z,6.30
2019-01-16T20:21:03.975Z,5.77
2019-01-16T20:23:54.961Z,5.40
2019-01-16T20:26:36.958Z,5.40
2019-01-16T20:29:39.278Z,4.93
2019-01-16T20:32:35.071Z,4.23
2019-01-16T20:35:28.270Z,4.70
2019-01-16T20:38:17.746Z,5.13
2019-01-16T20:41:05.160Z,5.00
2019-01-16T20:43:49.059Z,5.20
2019-01-16T20:46:48.709Z,4.63
2019-01-16T20:49:39.295Z,4.50
2019-01-16T20:52:25.984Z,5.00
2019-01-16T20:55:19.744Z,4.90
2019-01-16T20:58:24.798Z,4.90
2019-01-16T21:01:26.303Z,4.23
2019-01-16T21:04:15.126Z,4.37
2019-01-16T21:07:10.180Z,5.57
2019-01-16T21:09:59.113Z,5.23
2019-01-16T21:12:48.592Z,5.70
2019-01-16T21:15:33.251Z,5.90
2019-01-16T21:18:20.523Z,5.57
2019-01-16T21:21:12.641Z,5.43
2019-01-16T21:24:11.502Z,5.80
2019-01-16T21:27:21.192Z,5.17
2019-01-16T21:30:19.086Z,5.63
2019-01-16T21:33:10.686Z,9.60
2019-01-16T21:35:51.176Z,15.23
2019-01-16T21:38:31.330Z,14.57
2019-01-16T21:41:13.335Z,12.20
2019-01-16T21:44:01.045Z,11.90
2019-01-16T21:46:56.170Z,13.70
2019-01-16T21:49:48.707Z,14.00
2019-01-16T21:52:39.239Z,13.07
2019-01-16T21:55:20.620Z,11.37
2019-01-16T21:58:24.756Z,10.67
2019-01-16T22:01:13.617Z,10.90
2019-01-16T22:04:01.223Z,10.37
2019-01-16T22:06:52.341Z,9.03
2019-01-16T22:09:40.423Z,8.93
2019-01-16T22:12:29.551Z,8.73
2019-01-16T22:15:18.825Z,8.43
2019-01-16T22:18:09.135Z,8.00
2019-01-16T22:21:10.036Z,9.07
2019-01-16T22:23:59.034Z,9.47
2019-01-16T22:26:43.568Z,9.70
2019-01-16T22:32:38.418Z,7.70
2019-01-16T22:35:28.352Z,7.77
2019-01-16T22:38:08.500Z,6.67
2019-01-16T22:40:58.633Z,7.37
2019-01-16T22:43:52.155Z,7.63
2019-01-16T22:46:59.050Z,8.57
2019-01-16T22:50:04.317Z,7.80
2019-01-16T22:52:56.006Z,11.93
2019-01-16T22:55:42.430Z,9.07
2019-01-16T22:58:28.891Z,8.40
2019-01-16T23:01:22.722Z,7.50
2019-01-16T23:04:10.950Z,6.70
2019-01-16T23:06:54.807Z,7.30
2019-01-16T23:09:46.931Z,6.80
2019-01-16T23:12:35.519Z,7.63
2019-01-16T23:15:29.612Z,7.70
2019-01-16T23:18:21.118Z,6.57
2019-01-16T23:21:16.501Z,6.50
2019-01-16T23:24:12.762Z,6.40
2019-01-16T23:27:08.754Z,7.20
2019-01-16T23:30:01.258Z,6.20
2019-01-16T23:33:06.063Z,6.17
2019-01-16T23:36:04.202Z,5.30
2019-01-16T23:38:58.860Z,7.37
2019-01-16T23:41:47.196Z,8.53
2019-01-16T23:44:45.947Z,9.47
2019-01-16T23:47:46.910Z,6.97
2019-01-16T23:50:54.263Z,9.77
2019-01-16T23:53:42.876Z,7.00
2019-01-16T23:56:38.458Z,11.40
2019-01-16T23:59:18.005Z,9.30
